sensor_id;sensor_type;location;lat;lon;timestamp;temperature;humidity
25346;DHT22;13300;51.032;3.710;2023-04-24T00:01:26;10.30;99.90
25346;DHT22;13300;51.032;3.710;2023-04-24T00:03:52;10.30;99.90
25346;DHT22;13300;51.032;3.710;2023-04-24T00:06:17;10.50;99.90
25346;DHT22;13300;51.032;3.710;2023-04-24T00:08:43;10.50;99.90
25346;DHT22;13300;51.032;3.710;2023-04-24T00:11:09;10.40;99.90
25346;DHT22;13300;51.032;3.710;2023-04-24T00:13:35;10.40;99.90
25346;DHT22;13300;51.032;3.710;2023-04-24T00:16:01;10.30;99.90
25346;DHT22;13300;51.032;3.710;2023-04-24T00:18:29;10.30;99.90
25346;DHT22;13300;51.032;3.710;2023-04-24T00:21:00;10.20;99.90
25346;DHT22;13300;51.032;3.710;2023-04-24T00:23:25;10.30;99.90
25346;DHT22;13300;51.032;3.710;2023-04-24T00:25:51;10.30;99.90
25346;DHT22;13300;51.032;3.710;2023-04-24T00:28:17;10.30;99.90
25346;DHT22;13300;51.032;3.710;2023-04-24T00:30:42;10.40;99.90
25346;DHT22;13300;51.032;3.710;2023-04-24T00:33:08;10.50;99.90
25346;DHT22;13300;51.032;3.710;2023-04-24T00:35:34;10.50;99.90
25346;DHT22;13300;51.032;3.710;2023-04-24T00:38:00;10.30;99.90
25346;DHT22;13300;51.032;3.710;2023-04-24T00:40:28;10.30;99.90
25346;DHT22;13300;51.032;3.710;2023-04-24T00:42:54;10.30;99.90
25346;DHT22;13300;51.032;3.710;2023-04-24T00:45:20;10.30;99.90
25346;DHT22;13300;51.032;3.710;2023-04-24T00:47:46;10.20;99.90
25346;DHT22;13300;51.032;3.710;2023-04-24T00:50:15;10.20;99.90
25346;DHT22;13300;51.032;3.710;2023-04-24T00:52:41;10.10;99.90
25346;DHT22;13300;51.032;3.710;2023-04-24T00:55:07;10.10;99.90
25346;DHT22;13300;51.032;3.710;2023-04-24T00:57:33;10.10;99.90
25346;DHT22;13300;51.032;3.710;2023-04-24T00:59:59;10.10;99.90
25346;DHT22;13300;51.032;3.710;2023-04-24T01:02:25;10.20;99.90
25346;DHT22;13300;51.032;3.710;2023-04-24T01:04:51;10.20;99.90
25346;DHT22;13300;51.032;3.710;2023-04-24T01:07:21;10.20;99.90
25346;DHT22;13300;51.032;3.710;2023-04-24T01:09:48;10.30;99.90
25346;DHT22;13300;51.032;3.710;2023-04-24T01:12:16;10.20;99.90
25346;DHT22;13300;51.032;3.710;2023-04-24T01:14:42;10.20;99.90
25346;DHT22;13300;51.032;3.710;2023-04-24T01:17:08;10.10;99.90
25346;DHT22;13300;51.032;3.710;2023-04-24T01:19:34;10.10;99.90
25346;DHT22;13300;51.032;3.710;2023-04-24T01:22:02;10.10;99.90
25346;DHT22;13300;51.032;3.710;2023-04-24T01:24:28;10.00;99.90
25346;DHT22;13300;51.032;3.710;2023-04-24T01:26:54;9.90;99.90
25346;DHT22;13300;51.032;3.710;2023-04-24T01:29:21;9.90;99.90
25346;DHT22;13300;51.032;3.710;2023-04-24T01:31:47;9.90;99.90
25346;DHT22;13300;51.032;3.710;2023-04-24T01:34:13;9.90;99.90
25346;DHT22;13300;51.032;3.710;2023-04-24T01:36:39;9.90;99.90
25346;DHT22;13300;51.032;3.710;2023-04-24T01:39:05;10.10;99.90
25346;DHT22;13300;51.032;3.710;2023-04-24T01:41:31;9.90;99.90
25346;DHT22;13300;51.032;3.710;2023-04-24T01:43:58;9.80;99.90
25346;DHT22;13300;51.032;3.710;2023-04-24T01:46:24;9.80;99.90
25346;DHT22;13300;51.032;3.710;2023-04-24T01:48:51;9.90;99.90
25346;DHT22;13300;51.032;3.710;2023-04-24T01:51:17;9.90;99.90
25346;DHT22;13300;51.032;3.710;2023-04-24T01:53:43;9.80;99.90
25346;DHT22;13300;51.032;3.710;2023-04-24T01:56:12;9.80;99.90
25346;DHT22;13300;51.032;3.710;2023-04-24T01:58:38;9.80;99.90
25346;DHT22;13300;51.032;3.710;2023-04-24T02:01:06;9.80;99.90
25346;DHT22;13300;51.032;3.710;2023-04-24T02:03:34;9.80;99.90
25346;DHT22;13300;51.032;3.710;2023-04-24T02:06:00;9.70;99.90
25346;DHT22;13300;51.032;3.710;2023-04-24T02:08:25;9.70;99.90
25346;DHT22;13300;51.032;3.710;2023-04-24T02:10:51;9.70;99.90
25346;DHT22;13300;51.032;3.710;2023-04-24T02:13:20;9.60;99.90
25346;DHT22;13300;51.032;3.710;2023-04-24T02:15:45;9.60;99.90
25346;DHT22;13300;51.032;3.710;2023-04-24T02:18:11;9.60;99.90
25346;DHT22;13300;51.032;3.710;2023-04-24T02:20:40;9.60;99.90
25346;DHT22;13300;51.032;3.710;2023-04-24T02:23:06;9.60;99.90
25346;DHT22;13300;51.032;3.710;2023-04-24T02:25:33;9.50;99.90
25346;DHT22;13300;51.032;3.710;2023-04-24T02:27:58;9.50;99.90
25346;DHT22;13300;51.032;3.710;2023-04-24T02:30:24;9.50;99.90
25346;DHT22;13300;51.032;3.710;2023-04-24T02:32:50;9.50;99.90
25346;DHT22;13300;51.032;3.710;2023-04-24T02:35:17;9.50;99.90
25346;DHT22;13300;51.032;3.710;2023-04-24T02:37:42;9.60;99.90
25346;DHT22;13300;51.032;3.710;2023-04-24T02:40:09;9.60;99.90
25346;DHT22;13300;51.032;3.710;2023-04-24T02:42:44;9.70;99.90
25346;DHT22;13300;51.032;3.710;2023-04-24T02:45:12;9.70;99.90
25346;DHT22;13300;51.032;3.710;2023-04-24T02:47:40;9.70;99.90
25346;DHT22;13300;51.032;3.710;2023-04-24T02:50:09;9.70;99.90
25346;DHT22;13300;51.032;3.710;2023-04-24T02:52:35;9.80;99.90
25346;DHT22;13300;51.032;3.710;2023-04-24T02:55:04;9.80;99.90
25346;DHT22;13300;51.032;3.710;2023-04-24T02:57:33;9.80;99.90
25346;DHT22;13300;51.032;3.710;2023-04-24T02:59:59;9.90;99.90
25346;DHT22;13300;51.032;3.710;2023-04-24T03:02:36;9.90;99.90
25346;DHT22;13300;51.032;3.710;2023-04-24T03:05:04;9.80;99.90
25346;DHT22;13300;51.032;3.710;2023-04-24T03:07:30;9.80;99.90
25346;DHT22;13300;51.032;3.710;2023-04-24T03:09:57;9.80;99.90
25346;DHT22;13300;51.032;3.710;2023-04-24T03:12:26;9.70;99.90
25346;DHT22;13300;51.032;3.710;2023-04-24T03:14:51;9.70;99.90
25346;DHT22;13300;51.032;3.710;2023-04-24T03:17:17;9.60;99.90
25346;DHT22;13300;51.032;3.710;2023-04-24T03:19:49;9.60;99.90
25346;DHT22;13300;51.032;3.710;2023-04-24T03:22:20;9.60;99.90
25346;DHT22;13300;51.032;3.710;2023-04-24T03:24:49;9.70;99.90
25346;DHT22;13300;51.032;3.710;2023-04-24T03:27:15;9.60;99.90
25346;DHT22;13300;51.032;3.710;2023-04-24T03:29:43;9.70;99.90
25346;DHT22;13300;51.032;3.710;2023-04-24T03:32:09;9.60;99.90
25346;DHT22;13300;51.032;3.710;2023-04-24T03:34:40;9.60;99.90
25346;DHT22;13300;51.032;3.710;2023-04-24T03:37:09;9.70;99.90
25346;DHT22;13300;51.032;3.710;2023-04-24T03:39:35;9.50;99.90
25346;DHT22;13300;51.032;3.710;2023-04-24T03:42:05;9.60;99.90
25346;DHT22;13300;51.032;3.710;2023-04-24T03:44:34;9.50;99.90
25346;DHT22;13300;51.032;3.710;2023-04-24T03:47:00;9.50;99.90
25346;DHT22;13300;51.032;3.710;2023-04-24T03:49:28;9.30;99.90
25346;DHT22;13300;51.032;3.710;2023-04-24T03:51:54;9.30;99.90
25346;DHT22;13300;51.032;3.710;2023-04-24T03:54:20;9.30;99.90
25346;DHT22;13300;51.032;3.710;2023-04-24T03:56:46;9.20;99.90
25346;DHT22;13300;51.032;3.710;2023-04-24T03:59:14;9.20;99.90
25346;DHT22;13300;51.032;3.710;2023-04-24T04:01:40;9.20;99.90
25346;DHT22;13300;51.032;3.710;2023-04-24T04:04:06;9.30;99.90
25346;DHT22;13300;51.032;3.710;2023-04-24T04:06:32;9.30;99.90
25346;DHT22;13300;51.032;3.710;2023-04-24T04:08:58;9.30;99.90
25346;DHT22;13300;51.032;3.710;2023-04-24T04:11:27;9.30;99.90
25346;DHT22;13300;51.032;3.710;2023-04-24T04:13:55;9.30;99.90
25346;DHT22;13300;51.032;3.710;2023-04-24T04:16:22;9.20;99.90
25346;DHT22;13300;51.032;3.710;2023-04-24T04:18:48;9.30;99.90
25346;DHT22;13300;51.032;3.710;2023-04-24T04:21:17;9.30;99.90
25346;DHT22;13300;51.032;3.710;2023-04-24T04:23:45;9.30;99.90
25346;DHT22;13300;51.032;3.710;2023-04-24T04:26:11;9.20;99.90
25346;DHT22;13300;51.032;3.710;2023-04-24T04:28:38;9.20;99.90
25346;DHT22;13300;51.032;3.710;2023-04-24T04:31:05;9.20;99.90
25346;DHT22;13300;51.032;3.710;2023-04-24T04:33:30;9.20;99.90
25346;DHT22;13300;51.032;3.710;2023-04-24T04:35:57;9.20;99.90
25346;DHT22;13300;51.032;3.710;2023-04-24T04:38:22;9.20;99.90
25346;DHT22;13300;51.032;3.710;2023-04-24T04:40:53;9.30;99.90
25346;DHT22;13300;51.032;3.710;2023-04-24T04:43:25;9.10;99.90
25346;DHT22;13300;51.032;3.710;2023-04-24T04:45:52;9.20;99.90
25346;DHT22;13300;51.032;3.710;2023-04-24T04:48:18;9.40;99.90
25346;DHT22;13300;51.032;3.710;2023-04-24T04:50:44;9.30;99.90
25346;DHT22;13300;51.032;3.710;2023-04-24T04:53:10;9.40;99.90
25346;DHT22;13300;51.032;3.710;2023-04-24T04:55:37;9.40;99.90
25346;DHT22;13300;51.032;3.710;2023-04-24T04:58:03;9.50;99.90
25346;DHT22;13300;51.032;3.710;2023-04-24T05:00:30;9.40;99.90
25346;DHT22;13300;51.032;3.710;2023-04-24T05:03:01;9.40;99.90
25346;DHT22;13300;51.032;3.710;2023-04-24T05:05:32;9.40;99.90
25346;DHT22;13300;51.032;3.710;2023-04-24T05:07:58;9.40;99.90
25346;DHT22;13300;51.032;3.710;2023-04-24T05:10:31;9.40;99.90
25346;DHT22;13300;51.032;3.710;2023-04-24T05:12:57;9.40;99.90
25346;DHT22;13300;51.032;3.710;2023-04-24T05:15:28;9.50;99.90
25346;DHT22;13300;51.032;3.710;2023-04-24T05:17:54;9.50;99.90
25346;DHT22;13300;51.032;3.710;2023-04-24T05:20:22;9.50;99.90
25346;DHT22;13300;51.032;3.710;2023-04-24T05:22:51;9.60;99.90
25346;DHT22;13300;51.032;3.710;2023-04-24T05:25:16;9.60;99.90
25346;DHT22;13300;51.032;3.710;2023-04-24T05:27:42;9.60;99.90
25346;DHT22;13300;51.032;3.710;2023-04-24T05:30:09;9.60;99.90
25346;DHT22;13300;51.032;3.710;2023-04-24T05:32:37;9.60;99.90
25346;DHT22;13300;51.032;3.710;2023-04-24T05:35:03;9.50;99.90
25346;DHT22;13300;51.032;3.710;2023-04-24T05:37:32;9.60;99.90
25346;DHT22;13300;51.032;3.710;2023-04-24T05:39:58;9.60;99.90
25346;DHT22;13300;51.032;3.710;2023-04-24T05:42:26;9.60;99.90
25346;DHT22;13300;51.032;3.710;2023-04-24T05:44:52;9.50;99.90
25346;DHT22;13300;51.032;3.710;2023-04-24T05:47:19;9.70;99.90
25346;DHT22;13300;51.032;3.710;2023-04-24T05:49:47;9.80;99.90
25346;DHT22;13300;51.032;3.710;2023-04-24T05:52:19;9.80;99.90
25346;DHT22;13300;51.032;3.710;2023-04-24T05:54:45;9.80;99.90
25346;DHT22;13300;51.032;3.710;2023-04-24T05:57:10;9.60;99.90
25346;DHT22;13300;51.032;3.710;2023-04-24T05:59:37;9.60;99.90
25346;DHT22;13300;51.032;3.710;2023-04-24T06:02:04;9.70;99.90
25346;DHT22;13300;51.032;3.710;2023-04-24T06:04:32;9.70;99.90
25346;DHT22;13300;51.032;3.710;2023-04-24T06:07:00;9.50;99.90
25346;DHT22;13300;51.032;3.710;2023-04-24T06:09:26;9.50;99.90
25346;DHT22;13300;51.032;3.710;2023-04-24T06:11:57;9.60;99.90
25346;DHT22;13300;51.032;3.710;2023-04-24T06:14:23;9.60;99.90
25346;DHT22;13300;51.032;3.710;2023-04-24T06:16:59;9.70;99.90
25346;DHT22;13300;51.032;3.710;2023-04-24T06:19:28;9.90;99.90
25346;DHT22;13300;51.032;3.710;2023-04-24T06:21:53;9.90;99.90
25346;DHT22;13300;51.032;3.710;2023-04-24T06:24:20;9.80;99.90
25346;DHT22;13300;51.032;3.710;2023-04-24T06:26:56;9.80;99.90
25346;DHT22;13300;51.032;3.710;2023-04-24T06:29:26;9.80;99.90
25346;DHT22;13300;51.032;3.710;2023-04-24T06:31:58;9.80;99.90
25346;DHT22;13300;51.032;3.710;2023-04-24T06:34:26;10.00;99.90
25346;DHT22;13300;51.032;3.710;2023-04-24T06:36:51;10.20;99.90
25346;DHT22;13300;51.032;3.710;2023-04-24T06:39:17;10.20;99.90
25346;DHT22;13300;51.032;3.710;2023-04-24T06:41:43;10.00;99.90
25346;DHT22;13300;51.032;3.710;2023-04-24T06:44:08;10.10;99.90
25346;DHT22;13300;51.032;3.710;2023-04-24T06:46:45;10.10;99.90
25346;DHT22;13300;51.032;3.710;2023-04-24T06:49:11;10.00;99.90
25346;DHT22;13300;51.032;3.710;2023-04-24T06:51:36;10.00;99.90
25346;DHT22;13300;51.032;3.710;2023-04-24T06:54:02;10.00;99.90
25346;DHT22;13300;51.032;3.710;2023-04-24T06:56:28;10.10;99.90
25346;DHT22;13300;51.032;3.710;2023-04-24T06:58:54;10.20;99.90
25346;DHT22;13300;51.032;3.710;2023-04-24T07:01:20;10.30;99.90
25346;DHT22;13300;51.032;3.710;2023-04-24T07:03:46;10.30;99.90
25346;DHT22;13300;51.032;3.710;2023-04-24T07:06:14;10.30;99.90
25346;DHT22;13300;51.032;3.710;2023-04-24T07:08:44;10.30;99.90
25346;DHT22;13300;51.032;3.710;2023-04-24T07:11:12;10.30;99.90
25346;DHT22;13300;51.032;3.710;2023-04-24T07:13:38;10.30;99.90
25346;DHT22;13300;51.032;3.710;2023-04-24T07:16:07;10.40;99.90
25346;DHT22;13300;51.032;3.710;2023-04-24T07:18:34;10.20;99.90
25346;DHT22;13300;51.032;3.710;2023-04-24T07:20:59;10.10;99.90
25346;DHT22;13300;51.032;3.710;2023-04-24T07:23:26;10.10;99.90
25346;DHT22;13300;51.032;3.710;2023-04-24T07:25:52;10.20;99.90
25346;DHT22;13300;51.032;3.710;2023-04-24T07:28:17;10.30;99.90
25346;DHT22;13300;51.032;3.710;2023-04-24T07:30:43;10.40;99.90
25346;DHT22;13300;51.032;3.710;2023-04-24T07:33:09;10.40;99.90
25346;DHT22;13300;51.032;3.710;2023-04-24T07:35:38;10.40;99.90
25346;DHT22;13300;51.032;3.710;2023-04-24T07:38:04;10.40;99.90
25346;DHT22;13300;51.032;3.710;2023-04-24T07:40:32;10.20;99.90
25346;DHT22;13300;51.032;3.710;2023-04-24T07:42:58;10.20;99.90
25346;DHT22;13300;51.032;3.710;2023-04-24T07:45:24;10.30;99.90
25346;DHT22;13300;51.032;3.710;2023-04-24T07:47:51;10.30;99.90
25346;DHT22;13300;51.032;3.710;2023-04-24T07:50:17;10.40;99.90
25346;DHT22;13300;51.032;3.710;2023-04-24T07:52:43;10.60;99.90
25346;DHT22;13300;51.032;3.710;2023-04-24T07:55:08;10.60;99.90
25346;DHT22;13300;51.032;3.710;2023-04-24T07:57:37;10.80;99.90
25346;DHT22;13300;51.032;3.710;2023-04-24T08:00:04;11.50;99.90
25346;DHT22;13300;51.032;3.710;2023-04-24T08:02:31;12.80;99.90
25346;DHT22;13300;51.032;3.710;2023-04-24T08:05:00;14.00;99.90
25346;DHT22;13300;51.032;3.710;2023-04-24T08:07:25;15.20;99.90
25346;DHT22;13300;51.032;3.710;2023-04-24T08:09:51;16.20;99.90
25346;DHT22;13300;51.032;3.710;2023-04-24T08:12:17;16.10;99.90
25346;DHT22;13300;51.032;3.710;2023-04-24T08:14:46;15.10;99.90
25346;DHT22;13300;51.032;3.710;2023-04-24T08:17:11;14.20;99.90
25346;DHT22;13300;51.032;3.710;2023-04-24T08:19:37;13.70;99.90
25346;DHT22;13300;51.032;3.710;2023-04-24T08:22:03;13.00;99.90
25346;DHT22;13300;51.032;3.710;2023-04-24T08:24:29;12.70;99.90
25346;DHT22;13300;51.032;3.710;2023-04-24T08:26:55;13.40;99.90
25346;DHT22;13300;51.032;3.710;2023-04-24T08:29:26;14.60;99.90
25346;DHT22;13300;51.032;3.710;2023-04-24T08:31:52;15.20;99.90
25346;DHT22;13300;51.032;3.710;2023-04-24T08:34:20;14.80;99.90
25346;DHT22;13300;51.032;3.710;2023-04-24T08:36:48;14.00;99.90
25346;DHT22;13300;51.032;3.710;2023-04-24T08:39:15;13.50;99.90
25346;DHT22;13300;51.032;3.710;2023-04-24T08:41:44;14.10;99.90
25346;DHT22;13300;51.032;3.710;2023-04-24T08:44:11;14.20;99.90
25346;DHT22;13300;51.032;3.710;2023-04-24T08:46:38;14.50;99.90
25346;DHT22;13300;51.032;3.710;2023-04-24T08:49:05;14.30;99.90
25346;DHT22;13300;51.032;3.710;2023-04-24T08:51:31;13.90;99.90
25346;DHT22;13300;51.032;3.710;2023-04-24T08:53:57;13.30;99.90
25346;DHT22;13300;51.032;3.710;2023-04-24T08:56:23;13.20;99.90
25346;DHT22;13300;51.032;3.710;2023-04-24T08:58:54;13.10;99.90
25346;DHT22;13300;51.032;3.710;2023-04-24T09:01:20;13.00;99.90
25346;DHT22;13300;51.032;3.710;2023-04-24T09:03:51;13.10;99.90
25346;DHT22;13300;51.032;3.710;2023-04-24T09:06:19;13.20;99.90
25346;DHT22;13300;51.032;3.710;2023-04-24T09:08:47;13.30;99.90
25346;DHT22;13300;51.032;3.710;2023-04-24T09:11:15;13.20;99.90
25346;DHT22;13300;51.032;3.710;2023-04-24T09:13:41;13.00;99.90
25346;DHT22;13300;51.032;3.710;2023-04-24T09:16:08;12.90;99.90
25346;DHT22;13300;51.032;3.710;2023-04-24T09:18:33;12.90;99.90
25346;DHT22;13300;51.032;3.710;2023-04-24T09:21:07;13.40;99.90
25346;DHT22;13300;51.032;3.710;2023-04-24T09:23:33;13.60;99.90
25346;DHT22;13300;51.032;3.710;2023-04-24T09:26:00;13.90;99.90
25346;DHT22;13300;51.032;3.710;2023-04-24T09:28:29;14.20;99.90
25346;DHT22;13300;51.032;3.710;2023-04-24T09:31:07;14.70;99.90
25346;DHT22;13300;51.032;3.710;2023-04-24T09:33:33;14.80;99.90
25346;DHT22;13300;51.032;3.710;2023-04-24T09:35:59;14.70;99.90
25346;DHT22;13300;51.032;3.710;2023-04-24T09:38:32;14.50;99.90
25346;DHT22;13300;51.032;3.710;2023-04-24T09:41:03;14.10;99.90
25346;DHT22;13300;51.032;3.710;2023-04-24T09:43:30;14.30;99.90
25346;DHT22;13300;51.032;3.710;2023-04-24T09:45:57;14.20;99.90
25346;DHT22;13300;51.032;3.710;2023-04-24T09:48:34;13.80;99.90
25346;DHT22;13300;51.032;3.710;2023-04-24T09:51:05;13.60;99.90
25346;DHT22;13300;51.032;3.710;2023-04-24T09:53:32;13.70;99.90
25346;DHT22;13300;51.032;3.710;2023-04-24T09:56:11;13.90;99.90
25346;DHT22;13300;51.032;3.710;2023-04-24T09:58:38;13.90;99.90
25346;DHT22;13300;51.032;3.710;2023-04-24T10:01:04;14.10;99.90
25346;DHT22;13300;51.032;3.710;2023-04-24T10:03:31;14.50;99.90
25346;DHT22;13300;51.032;3.710;2023-04-24T10:06:03;14.90;99.90
25346;DHT22;13300;51.032;3.710;2023-04-24T10:08:35;15.10;99.90
25346;DHT22;13300;51.032;3.710;2023-04-24T10:11:01;14.80;99.90
25346;DHT22;13300;51.032;3.710;2023-04-24T10:13:30;14.50;99.90
25346;DHT22;13300;51.032;3.710;2023-04-24T10:15:56;14.30;99.90
25346;DHT22;13300;51.032;3.710;2023-04-24T10:18:24;14.20;99.90
25346;DHT22;13300;51.032;3.710;2023-04-24T10:20:50;14.10;99.90
25346;DHT22;13300;51.032;3.710;2023-04-24T10:23:18;14.20;99.90
25346;DHT22;13300;51.032;3.710;2023-04-24T10:25:47;13.90;99.90
25346;DHT22;13300;51.032;3.710;2023-04-24T10:28:15;14.10;99.90
25346;DHT22;13300;51.032;3.710;2023-04-24T10:30:43;14.80;99.90
25346;DHT22;13300;51.032;3.710;2023-04-24T10:33:11;15.50;99.90
25346;DHT22;13300;51.032;3.710;2023-04-24T10:35:41;16.20;99.90
25346;DHT22;13300;51.032;3.710;2023-04-24T10:38:16;17.40;99.90
25346;DHT22;13300;51.032;3.710;2023-04-24T10:40:46;17.10;99.90
25346;DHT22;13300;51.032;3.710;2023-04-24T10:43:16;17.20;99.90
25346;DHT22;13300;51.032;3.710;2023-04-24T10:46:03;17.10;99.90
25346;DHT22;13300;51.032;3.710;2023-04-24T10:48:32;16.90;99.90
25346;DHT22;13300;51.032;3.710;2023-04-24T10:50:58;17.30;99.90
25346;DHT22;13300;51.032;3.710;2023-04-24T10:53:34;18.40;99.90
25346;DHT22;13300;51.032;3.710;2023-04-24T10:56:03;19.20;99.90
25346;DHT22;13300;51.032;3.710;2023-04-24T10:58:57;19.40;99.90
25346;DHT22;13300;51.032;3.710;2023-04-24T11:01:28;18.70;99.90
25346;DHT22;13300;51.032;3.710;2023-04-24T11:03:59;18.10;99.90
25346;DHT22;13300;51.032;3.710;2023-04-24T11:09:59;16.70;99.90
25346;DHT22;13300;51.032;3.710;2023-04-24T11:12:31;16.60;99.90
25346;DHT22;13300;51.032;3.710;2023-04-24T11:15:03;16.80;99.90
25346;DHT22;13300;51.032;3.710;2023-04-24T11:17:34;16.80;99.90
25346;DHT22;13300;51.032;3.710;2023-04-24T11:20:10;17.60;99.90
25346;DHT22;13300;51.032;3.710;2023-04-24T11:22:39;18.40;99.90
25346;DHT22;13300;51.032;3.710;2023-04-24T11:25:11;18.50;99.90
25346;DHT22;13300;51.032;3.710;2023-04-24T11:27:46;18.80;99.90
25346;DHT22;13300;51.032;3.710;2023-04-24T11:30:20;19.30;99.90
25346;DHT22;13300;51.032;3.710;2023-04-24T11:32:50;20.20;99.90
25346;DHT22;13300;51.032;3.710;2023-04-24T11:35:20;21.00;99.90
25346;DHT22;13300;51.032;3.710;2023-04-24T11:37:53;21.40;99.90
25346;DHT22;13300;51.032;3.710;2023-04-24T11:40:23;21.50;99.50
25346;DHT22;13300;51.032;3.710;2023-04-24T11:42:59;21.60;99.60
25346;DHT22;13300;51.032;3.710;2023-04-24T11:45:29;22.40;98.20
25346;DHT22;13300;51.032;3.710;2023-04-24T11:47:55;21.40;98.60
25346;DHT22;13300;51.032;3.710;2023-04-24T11:50:23;20.70;99.30
25346;DHT22;13300;51.032;3.710;2023-04-24T11:52:49;20.50;99.90
25346;DHT22;13300;51.032;3.710;2023-04-24T11:57:46;21.90;98.40
25346;DHT22;13300;51.032;3.710;2023-04-24T12:02:44;22.40;96.30
25346;DHT22;13300;51.032;3.710;2023-04-24T12:05:20;22.40;95.70
25346;DHT22;13300;51.032;3.710;2023-04-24T12:07:49;21.80;95.50
25346;DHT22;13300;51.032;3.710;2023-04-24T12:10:23;21.50;96.70
25346;DHT22;13300;51.032;3.710;2023-04-24T12:12:53;21.70;95.50
25346;DHT22;13300;51.032;3.710;2023-04-24T12:15:23;22.00;96.00
25346;DHT22;13300;51.032;3.710;2023-04-24T12:17:51;22.30;95.20
25346;DHT22;13300;51.032;3.710;2023-04-24T12:20:17;22.70;94.90
25346;DHT22;13300;51.032;3.710;2023-04-24T12:23:01;22.90;93.80
25346;DHT22;13300;51.032;3.710;2023-04-24T12:25:33;23.20;93.90
25346;DHT22;13300;51.032;3.710;2023-04-24T12:30:34;22.80;93.00
25346;DHT22;13300;51.032;3.710;2023-04-24T12:33:01;22.00;93.70
25346;DHT22;13300;51.032;3.710;2023-04-24T12:35:32;21.60;94.60
25346;DHT22;13300;51.032;3.710;2023-04-24T12:38:09;21.20;94.40
25346;DHT22;13300;51.032;3.710;2023-04-24T12:40:35;21.50;94.30
25346;DHT22;13300;51.032;3.710;2023-04-24T12:43:01;21.20;94.20
25346;DHT22;13300;51.032;3.710;2023-04-24T12:45:27;21.10;95.30
25346;DHT22;13300;51.032;3.710;2023-04-24T12:47:53;21.10;94.30
25346;DHT22;13300;51.032;3.710;2023-04-24T12:50:19;20.70;95.10
25346;DHT22;13300;51.032;3.710;2023-04-24T12:52:47;19.70;96.10
25346;DHT22;13300;51.032;3.710;2023-04-24T12:55:13;19.00;96.70
25346;DHT22;13300;51.032;3.710;2023-04-24T12:57:39;18.60;97.60
25346;DHT22;13300;51.032;3.710;2023-04-24T13:00:07;18.50;98.20
25346;DHT22;13300;51.032;3.710;2023-04-24T13:02:36;18.60;97.30
25346;DHT22;13300;51.032;3.710;2023-04-24T13:05:02;17.90;98.00
25346;DHT22;13300;51.032;3.710;2023-04-24T13:07:28;17.50;99.20
25346;DHT22;13300;51.032;3.710;2023-04-24T13:09:55;17.90;99.80
25346;DHT22;13300;51.032;3.710;2023-04-24T13:12:21;18.50;98.10
25346;DHT22;13300;51.032;3.710;2023-04-24T13:14:49;19.10;97.20
25346;DHT22;13300;51.032;3.710;2023-04-24T13:17:21;19.70;95.30
25346;DHT22;13300;51.032;3.710;2023-04-24T13:19:51;19.60;95.00
25346;DHT22;13300;51.032;3.710;2023-04-24T13:22:17;19.40;95.80
25346;DHT22;13300;51.032;3.710;2023-04-24T13:24:52;19.30;97.20
25346;DHT22;13300;51.032;3.710;2023-04-24T13:27:18;19.30;96.50
25346;DHT22;13300;51.032;3.710;2023-04-24T13:29:47;18.90;96.60
25346;DHT22;13300;51.032;3.710;2023-04-24T13:32:13;18.90;97.10
25346;DHT22;13300;51.032;3.710;2023-04-24T13:34:48;19.60;95.80
25346;DHT22;13300;51.032;3.710;2023-04-24T13:37:23;20.20;95.30
25346;DHT22;13300;51.032;3.710;2023-04-24T13:40:19;20.70;94.00
25346;DHT22;13300;51.032;3.710;2023-04-24T13:42:50;21.20;93.70
25346;DHT22;13300;51.032;3.710;2023-04-24T13:45:16;21.50;92.50
25346;DHT22;13300;51.032;3.710;2023-04-24T13:47:54;21.30;93.60
25346;DHT22;13300;51.032;3.710;2023-04-24T13:50:22;21.00;93.70
25346;DHT22;13300;51.032;3.710;2023-04-24T13:52:50;21.30;93.70
25346;DHT22;13300;51.032;3.710;2023-04-24T13:55:22;21.40;93.30
25346;DHT22;13300;51.032;3.710;2023-04-24T13:58:00;21.20;92.60
25346;DHT22;13300;51.032;3.710;2023-04-24T14:00:31;21.10;93.50
25346;DHT22;13300;51.032;3.710;2023-04-24T14:02:57;20.90;93.30
25346;DHT22;13300;51.032;3.710;2023-04-24T14:05:23;21.00;93.00
25346;DHT22;13300;51.032;3.710;2023-04-24T14:07:50;20.80;93.10
25346;DHT22;13300;51.032;3.710;2023-04-24T14:10:18;20.80;93.40
25346;DHT22;13300;51.032;3.710;2023-04-24T14:12:46;20.70;92.60
25346;DHT22;13300;51.032;3.710;2023-04-24T14:15:20;20.60;92.40
25346;DHT22;13300;51.032;3.710;2023-04-24T14:17:51;20.70;93.20
25346;DHT22;13300;51.032;3.710;2023-04-24T14:20:23;20.80;93.10
25346;DHT22;13300;51.032;3.710;2023-04-24T14:22:54;19.90;92.80
25346;DHT22;13300;51.032;3.710;2023-04-24T14:25:28;19.30;94.40
25346;DHT22;13300;51.032;3.710;2023-04-24T14:28:01;19.10;94.80
25346;DHT22;13300;51.032;3.710;2023-04-24T14:30:30;19.40;94.80
25346;DHT22;13300;51.032;3.710;2023-04-24T14:33:06;20.20;94.30
25346;DHT22;13300;51.032;3.710;2023-04-24T14:35:35;20.50;93.80
25346;DHT22;13300;51.032;3.710;2023-04-24T14:38:12;19.90;93.50
25346;DHT22;13300;51.032;3.710;2023-04-24T14:40:43;19.90;93.80
25346;DHT22;13300;51.032;3.710;2023-04-24T14:43:11;19.80;92.90
25346;DHT22;13300;51.032;3.710;2023-04-24T14:45:46;19.10;94.60
25346;DHT22;13300;51.032;3.710;2023-04-24T14:48:12;19.20;94.20
25346;DHT22;13300;51.032;3.710;2023-04-24T14:50:38;18.90;95.30
25346;DHT22;13300;51.032;3.710;2023-04-24T14:53:04;18.80;95.00
25346;DHT22;13300;51.032;3.710;2023-04-24T14:55:30;18.30;96.30
25346;DHT22;13300;51.032;3.710;2023-04-24T14:58:00;17.70;96.40
25346;DHT22;13300;51.032;3.710;2023-04-24T15:00:29;17.10;97.90
25346;DHT22;13300;51.032;3.710;2023-04-24T15:03:05;16.90;98.60
25346;DHT22;13300;51.032;3.710;2023-04-24T15:05:31;16.70;98.60
25346;DHT22;13300;51.032;3.710;2023-04-24T15:07:59;16.80;98.60
25346;DHT22;13300;51.032;3.710;2023-04-24T15:10:30;16.80;98.40
25346;DHT22;13300;51.032;3.710;2023-04-24T15:12:56;16.30;99.20
25346;DHT22;13300;51.032;3.710;2023-04-24T15:15:22;16.00;99.90
25346;DHT22;13300;51.032;3.710;2023-04-24T15:17:50;15.90;99.90
25346;DHT22;13300;51.032;3.710;2023-04-24T15:20:34;15.90;99.90
25346;DHT22;13300;51.032;3.710;2023-04-24T15:23:05;15.70;99.90
25346;DHT22;13300;51.032;3.710;2023-04-24T15:25:38;15.40;99.90
25346;DHT22;13300;51.032;3.710;2023-04-24T15:28:05;15.10;99.90
25346;DHT22;13300;51.032;3.710;2023-04-24T15:30:33;14.90;99.90
25346;DHT22;13300;51.032;3.710;2023-04-24T15:33:00;14.90;99.90
25346;DHT22;13300;51.032;3.710;2023-04-24T15:35:26;15.20;99.90
25346;DHT22;13300;51.032;3.710;2023-04-24T15:37:52;15.10;99.90
25346;DHT22;13300;51.032;3.710;2023-04-24T15:40:18;15.10;99.90
25346;DHT22;13300;51.032;3.710;2023-04-24T15:42:46;15.20;99.90
25346;DHT22;13300;51.032;3.710;2023-04-24T15:45:27;15.30;99.90
25346;DHT22;13300;51.032;3.710;2023-04-24T15:48:06;15.50;99.90
25346;DHT22;13300;51.032;3.710;2023-04-24T15:50:32;15.80;99.90
25346;DHT22;13300;51.032;3.710;2023-04-24T15:53:00;16.00;99.90